createdAt,value
2023-05-05T00:00:27.607Z,7.80
2023-05-05T00:02:54.925Z,6.78
2023-05-05T00:05:24.654Z,7.75
2023-05-05T00:07:52.061Z,7.35
2023-05-05T00:10:19.226Z,6.85
2023-05-05T00:12:46.346Z,6.72
2023-05-05T00:15:13.413Z,7.07
2023-05-05T00:17:40.652Z,6.65
2023-05-05T00:20:08.664Z,6.90
2023-05-05T00:22:36.476Z,7.15
2023-05-05T00:25:05.173Z,7.32
2023-05-05T00:27:32.382Z,6.17
2023-05-05T00:29:59.414Z,6.85
2023-05-05T00:32:26.458Z,6.43
2023-05-05T00:34:53.961Z,6.60
2023-05-05T00:37:20.824Z,6.60
2023-05-05T00:39:47.735Z,6.72
2023-05-05T00:42:14.747Z,6.60
2023-05-05T00:44:42.469Z,6.57
2023-05-05T00:47:09.762Z,6.78
2023-05-05T00:49:38.154Z,6.20
2023-05-05T00:52:07.328Z,5.95
2023-05-05T00:54:35.689Z,6.47
2023-05-05T00:57:03.100Z,6.78
2023-05-05T00:59:35.061Z,6.80
2023-05-05T01:02:02.242Z,6.68
2023-05-05T01:04:29.236Z,6.50
2023-05-05T01:07:21.141Z,7.28
2023-05-05T01:10:20.108Z,7.05
2023-05-05T01:13:20.135Z,6.65
2023-05-05T01:18:58.557Z,6.50
2023-05-05T01:21:41.410Z,7.32
2023-05-05T01:24:41.422Z,6.90
2023-05-05T01:27:09.337Z,6.68
2023-05-05T01:30:05.469Z,6.30
2023-05-05T01:32:37.521Z,6.15
2023-05-05T01:35:33.011Z,6.85
2023-05-05T01:38:08.411Z,6.53
2023-05-05T01:40:47.073Z,6.43
2023-05-05T01:43:17.941Z,7.03
2023-05-05T01:45:46.759Z,6.68
2023-05-05T01:48:17.082Z,6.65
2023-05-05T01:50:46.683Z,6.35
2023-05-05T01:53:14.869Z,5.90
2023-05-05T01:55:43.035Z,6.80
2023-05-05T01:58:10.980Z,6.40
2023-05-05T02:00:38.765Z,6.75
2023-05-05T02:03:08.638Z,6.25
2023-05-05T02:05:37.527Z,5.75
2023-05-05T02:08:06.582Z,6.43
2023-05-05T02:10:34.260Z,6.78
2023-05-05T02:13:05.120Z,6.30
2023-05-05T02:15:35.742Z,6.30
2023-05-05T02:21:02.903Z,5.97
2023-05-05T02:23:30.678Z,6.22
2023-05-05T02:26:07.808Z,5.88
2023-05-05T02:29:09.753Z,6.28
2023-05-05T02:31:44.371Z,6.13
2023-05-05T02:34:13.511Z,6.13
2023-05-05T02:36:42.932Z,6.07
2023-05-05T02:39:30.721Z,5.93
2023-05-05T02:42:03.382Z,6.00
2023-05-05T02:44:34.597Z,6.68
2023-05-05T02:47:04.827Z,5.22
2023-05-05T02:49:32.619Z,5.80
2023-05-05T02:52:01.046Z,5.93
2023-05-05T02:54:33.748Z,5.75
2023-05-05T02:57:04.290Z,6.13
2023-05-05T02:59:50.875Z,6.07
2023-05-05T03:02:46.772Z,5.75
2023-05-05T03:05:22.339Z,5.70
2023-05-05T03:08:03.373Z,6.68
2023-05-05T03:10:41.543Z,6.35
2023-05-05T03:13:11.546Z,6.88
2023-05-05T03:15:49.271Z,6.78
2023-05-05T03:18:21.930Z,6.32
2023-05-05T03:20:56.306Z,7.47
2023-05-05T03:23:23.571Z,6.70
2023-05-05T03:25:55.798Z,6.57
2023-05-05T03:28:30.060Z,7.10
2023-05-05T03:31:00.556Z,7.45
2023-05-05T03:33:28.054Z,7.25
2023-05-05T03:35:58.258Z,6.85
2023-05-05T03:38:25.265Z,6.80
2023-05-05T03:40:52.405Z,6.70
2023-05-05T03:43:22.417Z,5.97
2023-05-05T03:45:50.560Z,5.80
2023-05-05T03:48:18.255Z,6.60
2023-05-05T03:50:45.899Z,6.70
2023-05-05T03:53:14.325Z,6.60
2023-05-05T03:55:41.976Z,6.40
2023-05-05T03:58:08.994Z,5.65
2023-05-05T04:00:35.894Z,6.68
2023-05-05T04:03:02.991Z,6.63
2023-05-05T04:05:30.542Z,6.22
2023-05-05T04:07:58.335Z,6.28
2023-05-05T04:10:26.127Z,5.60
2023-05-05T04:12:53.052Z,6.45
2023-05-05T04:15:20.020Z,6.50
2023-05-05T04:17:47.736Z,6.25
2023-05-05T04:20:15.299Z,6.40
2023-05-05T04:22:42.254Z,6.07
2023-05-05T04:25:10.276Z,6.97
2023-05-05T04:27:38.121Z,7.05
2023-05-05T04:30:06.925Z,6.38
2023-05-05T04:32:35.979Z,6.68
2023-05-05T04:35:03.135Z,7.50
2023-05-05T04:37:30.016Z,6.78
2023-05-05T04:39:58.276Z,6.82
2023-05-05T04:42:25.921Z,8.18
2023-05-05T04:44:53.067Z,7.75
2023-05-05T04:47:19.953Z,7.75
2023-05-05T04:49:47.155Z,7.50
2023-05-05T04:52:14.277Z,7.93
2023-05-05T04:54:41.419Z,7.80
2023-05-05T04:57:08.439Z,7.75
2023-05-05T04:59:36.555Z,7.05
2023-05-05T05:02:03.527Z,7.82
2023-05-05T05:04:30.511Z,7.55
2023-05-05T05:06:59.058Z,7.68
2023-05-05T05:09:27.430Z,7.95
2023-05-05T05:11:54.313Z,7.70
2023-05-05T05:14:21.762Z,7.53
2023-05-05T05:16:52.208Z,7.68
2023-05-05T05:19:20.607Z,9.05
2023-05-05T05:21:47.932Z,8.70
2023-05-05T05:24:15.134Z,7.70
2023-05-05T05:26:43.696Z,8.27
2023-05-05T05:29:16.763Z,8.35
2023-05-05T05:31:43.841Z,7.70
2023-05-05T05:34:12.677Z,8.57
2023-05-05T05:36:41.058Z,8.80
2023-05-05T05:39:08.125Z,8.38
2023-05-05T05:41:35.121Z,7.75
2023-05-05T05:44:02.039Z,8.48
2023-05-05T05:46:29.593Z,8.07
2023-05-05T05:48:56.676Z,8.70
2023-05-05T05:51:24.289Z,7.78
2023-05-05T05:53:51.908Z,7.53
2023-05-05T05:56:19.431Z,8.27
2023-05-05T05:58:48.510Z,8.35
2023-05-05T06:01:16.053Z,8.13
2023-05-05T06:03:43.675Z,8.52
2023-05-05T06:06:11.216Z,8.55
2023-05-05T06:08:38.227Z,8.55
2023-05-05T06:11:05.181Z,8.88
2023-05-05T06:13:32.342Z,8.23
2023-05-05T06:15:59.298Z,9.60
2023-05-05T06:18:26.604Z,8.60
2023-05-05T06:20:53.503Z,8.45
2023-05-05T06:23:24.772Z,9.00
2023-05-05T06:25:57.025Z,8.60
2023-05-05T06:28:23.984Z,9.52
2023-05-05T06:30:51.759Z,9.38
2023-05-05T06:33:18.795Z,10.25
2023-05-05T06:35:45.788Z,10.13
2023-05-05T06:38:13.221Z,9.73
2023-05-05T06:40:40.371Z,9.88
2023-05-05T06:43:07.732Z,9.93
2023-05-05T06:45:43.067Z,9.57
2023-05-05T06:48:10.802Z,9.15
2023-05-05T06:50:37.627Z,9.93
2023-05-05T06:53:04.561Z,10.27
2023-05-05T06:55:31.627Z,10.02
2023-05-05T06:57:58.733Z,10.32
2023-05-05T07:00:25.853Z,9.48
2023-05-05T07:02:52.859Z,9.52
2023-05-05T07:05:20.165Z,9.45
2023-05-05T07:07:53.958Z,9.32
2023-05-05T07:10:22.496Z,9.15
2023-05-05T07:12:49.965Z,8.38
2023-05-05T07:15:27.440Z,9.40
2023-05-05T07:17:56.848Z,8.60
2023-05-05T07:20:24.342Z,8.63
2023-05-05T07:22:51.638Z,8.85
2023-05-05T07:25:18.634Z,8.43
2023-05-05T07:27:45.680Z,8.50
2023-05-05T07:30:16.271Z,8.57
2023-05-05T07:32:44.893Z,7.93
2023-05-05T07:35:12.142Z,7.95
2023-05-05T07:37:39.191Z,7.40
2023-05-05T07:40:06.949Z,8.00
2023-05-05T07:42:34.129Z,8.05
2023-05-05T07:45:00.970Z,8.45
2023-05-05T07:47:27.876Z,7.30
2023-05-05T07:49:54.817Z,8.38
2023-05-05T07:52:33.153Z,9.43
2023-05-05T07:55:08.999Z,9.07
2023-05-05T07:57:35.911Z,9.88
2023-05-05T08:00:03.233Z,8.82
2023-05-05T08:02:39.377Z,8.35
2023-05-05T08:05:07.123Z,8.23
2023-05-05T08:07:34.290Z,8.50
2023-05-05T08:10:01.164Z,8.02
2023-05-05T08:12:27.997Z,7.85
2023-05-05T08:14:54.889Z,7.85
2023-05-05T08:17:21.877Z,7.30
2023-05-05T08:19:52.226Z,8.20
2023-05-05T08:22:20.092Z,7.57
2023-05-05T08:24:46.964Z,7.18
2023-05-05T08:27:14.113Z,8.35
2023-05-05T08:29:41.135Z,8.00
2023-05-05T08:32:07.994Z,6.80
2023-05-05T08:34:34.848Z,6.53
2023-05-05T08:37:01.695Z,5.90
2023-05-05T08:39:28.626Z,6.03
2023-05-05T08:41:55.516Z,5.50
2023-05-05T08:44:22.435Z,5.15
2023-05-05T08:46:50.086Z,5.10
2023-05-05T08:49:18.938Z,5.95
2023-05-05T08:51:46.668Z,5.60
2023-05-05T08:54:22.339Z,5.50
2023-05-05T08:56:52.965Z,5.35
2023-05-05T08:59:24.295Z,5.00
2023-05-05T09:01:52.811Z,4.80
2023-05-05T09:04:19.744Z,5.60
2023-05-05T09:06:46.664Z,5.47
2023-05-05T09:09:13.690Z,5.18
2023-05-05T09:11:42.249Z,5.55
2023-05-05T09:14:09.741Z,5.53
2023-05-05T09:16:40.242Z,5.55
2023-05-05T09:19:07.176Z,5.20
2023-05-05T09:21:34.201Z,5.35
2023-05-05T09:24:08.705Z,5.68
2023-05-05T09:26:38.335Z,4.55
2023-05-05T09:29:06.344Z,5.88
2023-05-05T09:31:34.555Z,5.38
2023-05-05T09:34:01.590Z,5.00
2023-05-05T09:36:44.784Z,4.88
2023-05-05T09:39:11.699Z,4.65
2023-05-05T09:41:43.575Z,5.20
2023-05-05T09:44:12.509Z,4.65
2023-05-05T09:46:51.157Z,4.13
2023-05-05T09:49:26.902Z,4.53
2023-05-05T09:51:54.943Z,4.18
2023-05-05T09:54:29.691Z,4.13
2023-05-05T09:56:57.657Z,4.72
2023-05-05T09:59:24.591Z,4.05
2023-05-05T10:01:52.175Z,4.38
2023-05-05T10:04:28.220Z,3.67
2023-05-05T10:06:56.661Z,3.70
2023-05-05T10:09:24.910Z,3.63
2023-05-05T10:11:52.390Z,3.90
2023-05-05T10:14:20.480Z,4.20
2023-05-05T10:16:52.257Z,3.63
2023-05-05T10:19:24.358Z,3.65
2023-05-05T10:21:52.944Z,3.85
2023-05-05T10:24:38.622Z,3.72
2023-05-05T10:27:19.675Z,3.60
2023-05-05T10:30:01.223Z,3.30
2023-05-05T10:35:19.998Z,3.70
2023-05-05T10:37:47.640Z,3.72
2023-05-05T10:40:15.779Z,3.28
2023-05-05T10:42:43.066Z,3.10
2023-05-05T10:45:10.309Z,3.40
2023-05-05T10:47:38.242Z,3.25
2023-05-05T10:50:17.192Z,3.90
2023-05-05T10:52:55.707Z,4.05
2023-05-05T10:55:39.943Z,3.13
2023-05-05T10:58:06.876Z,2.92
2023-05-05T11:00:39.856Z,3.10
2023-05-05T11:03:21.465Z,3.38
2023-05-05T11:06:03.978Z,3.33
2023-05-05T11:08:32.721Z,3.40
2023-05-05T11:11:00.376Z,2.87
2023-05-05T11:13:27.633Z,2.80
2023-05-05T11:15:56.692Z,3.08
2023-05-05T11:18:40.938Z,2.90
2023-05-05T11:21:16.007Z,3.10
2023-05-05T11:23:49.649Z,3.33
2023-05-05T11:26:18.619Z,2.90
2023-05-05T11:28:59.349Z,3.03
2023-05-05T11:31:26.556Z,2.83
2023-05-05T11:33:53.736Z,2.47
2023-05-05T11:36:37.252Z,2.95
2023-05-05T11:39:04.990Z,3.00
2023-05-05T11:41:37.994Z,2.80
2023-05-05T11:44:20.656Z,3.28
2023-05-05T11:46:54.372Z,2.80
2023-05-05T11:49:32.863Z,3.00
2023-05-05T11:52:05.562Z,2.80
2023-05-05T11:54:34.918Z,3.53
2023-05-05T11:57:05.317Z,2.67
2023-05-05T11:59:33.089Z,2.83
2023-05-05T12:02:00.373Z,2.60
2023-05-05T12:04:27.420Z,2.55
2023-05-05T12:06:55.536Z,2.47
2023-05-05T12:09:23.856Z,2.15
2023-05-05T12:11:58.225Z,2.47
2023-05-05T12:14:25.972Z,2.20
2023-05-05T12:16:56.494Z,2.15
2023-05-05T12:19:24.069Z,1.80
2023-05-05T12:21:54.128Z,2.20
2023-05-05T12:24:21.119Z,2.08
2023-05-05T12:26:47.968Z,2.33
2023-05-05T12:29:25.095Z,1.85
2023-05-05T12:31:52.344Z,2.10
2023-05-05T12:34:19.704Z,1.85
2023-05-05T12:36:47.241Z,2.45
2023-05-05T12:39:14.140Z,2.35
2023-05-05T12:41:41.271Z,2.00
2023-05-05T12:44:08.283Z,2.17
2023-05-05T12:46:48.432Z,2.00
2023-05-05T12:49:16.518Z,1.40
2023-05-05T12:51:54.310Z,1.60
2023-05-05T12:54:23.376Z,1.73
2023-05-05T12:56:50.470Z,1.58
2023-05-05T12:59:23.408Z,1.45
2023-05-05T13:01:58.358Z,1.40
2023-05-05T13:04:27.418Z,1.38
2023-05-05T13:07:15.728Z,1.60
2023-05-05T13:09:43.179Z,1.47
2023-05-05T13:12:12.688Z,1.50
2023-05-05T13:14:40.757Z,1.77
2023-05-05T13:17:08.154Z,1.52
2023-05-05T13:19:42.469Z,1.23
2023-05-05T13:22:13.295Z,1.52
2023-05-05T13:24:50.952Z,1.50
2023-05-05T13:29:46.818Z,1.38
2023-05-05T13:32:14.015Z,1.40
2023-05-05T13:34:42.609Z,1.50
2023-05-05T13:37:09.915Z,1.60
2023-05-05T13:39:37.074Z,1.38
2023-05-05T13:42:04.112Z,1.60
2023-05-05T13:44:31.434Z,1.40
2023-05-05T13:46:58.340Z,1.20
2023-05-05T13:49:25.769Z,1.10
2023-05-05T13:51:52.692Z,1.30
2023-05-05T13:54:19.613Z,1.42
2023-05-05T13:56:46.688Z,1.23
2023-05-05T13:59:13.670Z,1.40
2023-05-05T14:01:40.773Z,1.48
2023-05-05T14:04:08.096Z,1.20
2023-05-05T14:06:36.208Z,1.40
2023-05-05T14:09:05.810Z,1.50
2023-05-05T14:11:33.042Z,1.50
2023-05-05T14:13:59.903Z,1.30
2023-05-05T14:16:26.917Z,1.38
2023-05-05T14:18:54.191Z,1.48
2023-05-05T14:21:21.090Z,1.45
2023-05-05T14:23:47.915Z,1.30
2023-05-05T14:26:14.975Z,1.30
2023-05-05T14:28:42.297Z,1.20
2023-05-05T14:31:09.468Z,1.48
2023-05-05T14:33:36.369Z,1.20
2023-05-05T14:36:03.442Z,1.20
2023-05-05T14:38:30.599Z,1.50
2023-05-05T14:40:57.598Z,1.25
2023-05-05T14:43:24.639Z,1.15
2023-05-05T14:45:52.417Z,1.42
2023-05-05T14:48:22.403Z,1.20
2023-05-05T14:50:50.228Z,1.67
2023-05-05T14:53:19.010Z,1.30
2023-05-05T14:55:46.075Z,1.55
2023-05-05T14:58:12.960Z,1.58
2023-05-05T15:00:39.909Z,1.60
2023-05-05T15:03:06.861Z,1.52
2023-05-05T15:05:33.901Z,1.40
2023-05-05T15:08:00.892Z,1.85
2023-05-05T15:10:27.850Z,2.00
2023-05-05T15:12:54.944Z,1.60
2023-05-05T15:15:21.837Z,2.00
2023-05-05T15:17:48.794Z,1.60
2023-05-05T15:20:15.680Z,1.90
2023-05-05T15:22:42.612Z,2.10
2023-05-05T15:25:12.344Z,3.10
2023-05-05T15:27:39.989Z,2.17
2023-05-05T15:30:07.691Z,1.88
2023-05-05T15:32:34.926Z,2.00
2023-05-05T15:35:01.892Z,1.98
2023-05-05T15:37:29.280Z,1.58
2023-05-05T15:39:56.326Z,1.90
2023-05-05T15:42:23.526Z,1.80
2023-05-05T15:44:51.200Z,1.90
2023-05-05T15:47:18.330Z,1.83
2023-05-05T15:49:45.125Z,1.77
2023-05-05T15:52:12.777Z,1.80
2023-05-05T15:54:39.829Z,1.58
2023-05-05T15:57:06.706Z,2.05
2023-05-05T15:59:33.547Z,1.77
2023-05-05T16:02:00.432Z,1.80
2023-05-05T16:04:27.420Z,2.38
2023-05-05T16:06:55.418Z,2.00
2023-05-05T16:09:22.315Z,1.73
2023-05-05T16:11:49.244Z,2.03
2023-05-05T16:14:16.117Z,1.70
2023-05-05T16:16:43.943Z,1.83
2023-05-05T16:19:10.820Z,1.90
2023-05-05T16:21:37.794Z,1.60
2023-05-05T16:24:05.064Z,1.75
2023-05-05T16:26:32.138Z,1.85
2023-05-05T16:28:58.938Z,1.60
2023-05-05T16:31:26.354Z,1.80
2023-05-05T16:33:53.184Z,1.70
2023-05-05T16:36:20.762Z,1.90
2023-05-05T16:38:47.619Z,1.67
2023-05-05T16:41:14.670Z,1.80
2023-05-05T16:43:41.626Z,2.17
2023-05-05T16:46:08.702Z,1.90
2023-05-05T16:48:35.702Z,2.13
2023-05-05T16:51:02.640Z,1.88
2023-05-05T16:53:29.625Z,1.50
2023-05-05T16:55:56.529Z,1.70
2023-05-05T16:58:23.774Z,1.70
2023-05-05T17:00:51.646Z,1.70
2023-05-05T17:03:20.197Z,2.00
2023-05-05T17:05:50.041Z,1.70
2023-05-05T17:08:17.570Z,1.92
2023-05-05T17:10:45.632Z,1.83
2023-05-05T17:13:13.895Z,2.00
2023-05-05T17:15:41.525Z,1.65
2023-05-05T17:18:08.915Z,1.80
2023-05-05T17:20:36.311Z,2.03
2023-05-05T17:23:03.382Z,1.98
2023-05-05T17:25:30.480Z,2.03
2023-05-05T17:27:57.456Z,2.70
2023-05-05T17:30:24.573Z,2.40
2023-05-05T17:32:51.489Z,2.17
2023-05-05T17:35:21.088Z,2.30
2023-05-05T17:37:48.803Z,2.70
2023-05-05T17:40:15.852Z,2.50
2023-05-05T17:42:42.750Z,2.40
2023-05-05T17:45:10.297Z,2.53
2023-05-05T17:47:37.736Z,2.25
2023-05-05T17:50:05.046Z,2.10
2023-05-05T17:52:32.027Z,2.00
2023-05-05T17:54:58.841Z,1.95
2023-05-05T17:57:25.708Z,2.00
2023-05-05T17:59:53.688Z,2.50
2023-05-05T18:02:20.965Z,2.38
2023-05-05T18:04:47.938Z,2.55
2023-05-05T18:07:15.077Z,2.53
2023-05-05T18:09:42.261Z,2.63
2023-05-05T18:12:09.492Z,2.50
2023-05-05T18:14:36.681Z,2.60
2023-05-05T18:17:04.603Z,2.30
2023-05-05T18:19:31.552Z,2.70
2023-05-05T18:21:59.101Z,2.53
2023-05-05T18:24:26.502Z,2.78
2023-05-05T18:26:53.728Z,2.80
2023-05-05T18:29:21.961Z,2.67
2023-05-05T18:31:52.014Z,2.47
2023-05-05T18:34:20.496Z,2.90
2023-05-05T18:36:48.314Z,2.83
2023-05-05T18:39:15.415Z,3.00
2023-05-05T18:41:42.325Z,2.83
2023-05-05T18:44:10.191Z,3.47
2023-05-05T18:46:37.195Z,2.60
2023-05-05T18:49:04.232Z,2.83
2023-05-05T18:51:32.186Z,2.90
2023-05-05T18:54:00.830Z,2.85
2023-05-05T18:56:27.978Z,3.13
2023-05-05T18:58:57.437Z,2.63
2023-05-05T19:01:24.390Z,2.97
2023-05-05T19:03:51.549Z,2.53
2023-05-05T19:06:18.585Z,3.05
2023-05-05T19:08:46.572Z,3.00
2023-05-05T19:11:15.057Z,3.28
2023-05-05T19:13:42.617Z,3.23
2023-05-05T19:16:11.162Z,3.30
2023-05-05T19:18:38.724Z,3.90
2023-05-05T19:21:06.181Z,3.50
2023-05-05T19:23:33.389Z,3.40
2023-05-05T19:26:01.708Z,3.25
2023-05-05T19:28:28.726Z,3.42
2023-05-05T19:30:55.760Z,3.42
2023-05-05T19:33:23.029Z,3.35
2023-05-05T19:35:51.264Z,3.63
2023-05-05T19:38:18.287Z,3.63
2023-05-05T19:40:45.333Z,3.53
2023-05-05T19:43:12.476Z,3.45
2023-05-05T19:45:40.249Z,3.63
2023-05-05T19:48:07.844Z,3.63
2023-05-05T19:50:35.168Z,4.15
2023-05-05T19:53:03.575Z,3.63
2023-05-05T19:55:30.633Z,3.90
2023-05-05T19:57:57.810Z,3.50
2023-05-05T20:00:25.012Z,4.10
2023-05-05T20:02:51.982Z,3.75
2023-05-05T20:05:18.977Z,4.28
2023-05-05T20:07:46.939Z,3.60
2023-05-05T20:10:14.094Z,3.63
2023-05-05T20:12:47.943Z,3.97
2023-05-05T20:15:19.574Z,4.10
2023-05-05T20:17:47.782Z,4.43
2023-05-05T20:20:20.930Z,3.65
2023-05-05T20:22:48.690Z,4.13
2023-05-05T20:25:18.329Z,4.10
2023-05-05T20:27:47.952Z,3.97
2023-05-05T20:30:15.138Z,4.22
2023-05-05T20:32:42.095Z,3.97
2023-05-05T20:35:09.558Z,5.03
2023-05-05T20:37:36.461Z,5.63
2023-05-05T20:40:03.822Z,5.28
2023-05-05T20:42:30.798Z,5.20
2023-05-05T20:44:57.964Z,5.05
2023-05-05T20:47:24.926Z,5.13
2023-05-05T20:49:52.548Z,5.72
2023-05-05T20:52:20.178Z,5.03
2023-05-05T20:54:47.252Z,5.25
2023-05-05T20:57:14.132Z,4.97
2023-05-05T20:59:41.062Z,7.22
2023-05-05T21:02:08.318Z,7.50
2023-05-05T21:04:35.694Z,7.38
2023-05-05T21:07:02.940Z,7.45
2023-05-05T21:09:30.052Z,7.65
2023-05-05T21:11:57.073Z,7.28
2023-05-05T21:14:24.124Z,7.40
2023-05-05T21:16:51.285Z,7.10
2023-05-05T21:19:18.255Z,7.95
2023-05-05T21:21:45.405Z,7.13
2023-05-05T21:24:15.576Z,7.25
2023-05-05T21:26:44.294Z,6.80
2023-05-05T21:29:12.151Z,6.63
2023-05-05T21:31:39.224Z,6.65
2023-05-05T21:34:06.216Z,7.00
2023-05-05T21:36:34.009Z,6.60
2023-05-05T21:39:01.666Z,6.75
2023-05-05T21:41:28.713Z,6.57
2023-05-05T21:43:55.752Z,5.78
2023-05-05T21:46:22.924Z,5.68
2023-05-05T21:48:50.107Z,5.85
2023-05-05T21:51:17.430Z,6.40
2023-05-05T21:53:44.424Z,5.97
2023-05-05T21:56:11.389Z,5.43
2023-05-05T21:58:38.681Z,5.90
2023-05-05T22:01:05.804Z,5.78
2023-05-05T22:03:35.134Z,5.78
2023-05-05T22:06:02.295Z,5.40
2023-05-05T22:08:29.345Z,5.40
2023-05-05T22:10:56.274Z,6.53
2023-05-05T22:13:23.323Z,5.78
2023-05-05T22:15:50.351Z,6.00
2023-05-05T22:18:17.511Z,6.15
2023-05-05T22:20:44.542Z,6.60
2023-05-05T22:23:11.750Z,6.45
2023-05-05T22:25:38.883Z,6.50
2023-05-05T22:28:05.918Z,6.65
2023-05-05T22:30:32.909Z,6.75
2023-05-05T22:32:59.993Z,6.63
2023-05-05T22:35:27.358Z,6.60
2023-05-05T22:37:54.427Z,7.53
2023-05-05T22:40:21.351Z,6.43
2023-05-05T22:42:48.314Z,6.70
2023-05-05T22:45:15.366Z,6.55
2023-05-05T22:47:42.680Z,6.45
2023-05-05T22:50:10.346Z,6.80
2023-05-05T22:52:37.325Z,6.25
2023-05-05T22:55:04.524Z,5.70
2023-05-05T22:57:31.506Z,5.88
2023-05-05T22:59:58.451Z,5.97
2023-05-05T23:02:26.691Z,6.25
2023-05-05T23:04:53.805Z,5.53
2023-05-05T23:07:21.090Z,6.70
2023-05-05T23:09:48.179Z,6.07
2023-05-05T23:12:15.503Z,6.70
2023-05-05T23:14:42.753Z,6.18
2023-05-05T23:17:09.890Z,6.03
2023-05-05T23:19:37.042Z,5.80
2023-05-05T23:22:04.258Z,5.88
2023-05-05T23:24:31.653Z,5.57
2023-05-05T23:27:02.093Z,6.38
2023-05-05T23:29:29.374Z,6.43
2023-05-05T23:31:57.055Z,6.50
2023-05-05T23:34:24.388Z,5.85
2023-05-05T23:36:51.378Z,6.47
2023-05-05T23:39:18.507Z,5.90
2023-05-05T23:41:45.388Z,8.00
2023-05-05T23:44:12.806Z,8.65
2023-05-05T23:46:39.794Z,8.75
2023-05-05T23:49:06.768Z,7.32
2023-05-05T23:51:33.754Z,7.53
2023-05-05T23:54:01.228Z,7.10
2023-05-05T23:56:28.178Z,6.90
2023-05-05T23:58:55.038Z,8.30
